Portada
METAR-TAF:

METAR-TAF

Aeropuertos :

Aeropuerto de Salamanca

Salamanca, España

latitud: 40-57N, longitud: 005-30W, altitud: 793 m

Observación

El informe se hizo hace 6 horas y 49 minutos, a las 19:00 UTC
Viento 2 kt del este
Temperatura 24°C
Humedad 47%
Presión 1020 hPa
Visibilidad 10 km o más
sin nubes por debajo de 1500 m y sin presencia de cumulonimbus.

METAR: LESA 161900Z 10002KT CAVOK 24/12 Q1020

Hora: 03:49 (01:49 UTC)

Pronóstico

El informe se hizo hace 2 horas y 49 minutos, a las 23:00 UTC
Pronóstico válido del 17 a las 00 UTC al 17 a las 24 UTC
Viento 5 kt con dirección variable
Visibilidad 10 km o más
Escasas nubes a una altura de 4000 ft

TAF: LESA 162300Z 1700/1724 VRB05KT 9999 FEW040 TX32/1715Z TN14/1705Z

Observaciones y pronósticos meteorológicos de más de 4000 aeropuertos (mensajes METAR y TAF).

Los puntos amarillos y rojos representan las estaciones disponibles.

Ponga el ratón en el punto deseado para ver el nombre de la estación.

Haga clic para ver las observaciones y los pronósticos meteorológicos.

Para cambiar el mapa : haga clic en los botones verdes con una cruz de color negro para hacer un zoom, en el botón verde con un guión para alejar o en las flechas verdes para mapas adyacentes.


METAR-TAF: